Time;durP1;ratioP1;P1;durP2;ratioP2;P2;SDS_P1;SDS_P2;PMS_P1;PMS_P2;Temp;Humidity;BMP_temperature;BMP_pressure;BME280_temperature;BME280_humidity;BME280_pressure;Samples;Min_cycle;Max_cycle;Signal;HPM_P1;HPM_P2
2022/06/29 00:00:20;;;;;;;3.60;3.30;;;16.10;99.90;;;;;;4908540;29;20051;-74
2022/06/29 00:02:47;;;;;;;4.00;3.58;;;16.10;99.90;;;;;;4900590;29;20629;-74
2022/06/29 00:05:15;;;;;;;4.68;3.85;;;16.00;99.90;;;;;;4902279;29;20055;-74
2022/06/29 00:07:42;;;;;;;3.65;3.10;;;16.00;99.90;;;;;;4900715;29;20135;-74
2022/06/29 00:10:09;;;;;;;5.18;3.63;;;16.00;99.90;;;;;;4903581;29;20168;-74
2022/06/29 00:12:35;;;;;;;4.82;3.60;;;16.00;99.90;;;;;;4905364;29;20066;-74
2022/06/29 00:15:02;;;;;;;3.78;3.28;;;16.00;99.90;;;;;;4911519;29;20575;-74
2022/06/29 00:17:30;;;;;;;5.22;3.13;;;15.30;99.90;;;;;;4903011;29;20040;-74
2022/06/29 00:19:57;;;;;;;4.75;2.92;;;15.90;99.90;;;;;;4914586;29;20060;-74
2022/06/29 00:22:23;;;;;;;4.50;3.78;;;15.90;99.90;;;;;;4911590;29;20055;-74
2022/06/29 00:24:49;;;;;;;4.07;3.63;;;15.80;99.90;;;;;;4907052;29;20094;-74
2022/06/29 00:27:15;;;;;;;4.68;4.13;;;15.80;99.90;;;;;;4909700;29;20051;-74
2022/06/29 00:29:41;;;;;;;4.60;3.85;;;15.80;99.90;;;;;;4929139;28;20148;-74
2022/06/29 00:32:07;;;;;;;4.00;3.28;;;15.80;99.90;;;;;;4902706;29;20044;-74
2022/06/29 00:34:33;;;;;;;3.63;3.33;;;15.70;99.90;;;;;;4915213;28;20071;-74
2022/06/29 00:36:59;;;;;;;3.90;3.60;;;15.60;99.90;;;;;;4914426;29;20961;-74
2022/06/29 00:39:25;;;;;;;5.15;3.10;;;15.60;99.90;;;;;;4921118;28;20609;-74
2022/06/29 00:41:50;;;;;;;3.75;3.45;;;15.50;99.90;;;;;;4912521;29;20640;-74
2022/06/29 00:44:19;;;;;;;3.15;2.72;;;15.50;99.90;;;;;;4919441;29;20046;-74
2022/06/29 00:46:57;;;;;;;4.35;3.42;;;15.50;99.90;;;;;;4908740;28;20056;-74
2022/06/29 00:49:24;;;;;;;4.50;3.20;;;15.50;99.90;;;;;;4918360;29;20123;-74
2022/06/29 00:51:54;;;;;;;3.55;3.25;;;15.50;99.90;;;;;;4918172;29;20084;-74
2022/06/29 00:54:25;;;;;;;4.00;3.45;;;15.50;99.90;;;;;;4914683;29;20051;-74
2022/06/29 00:56:51;;;;;;;4.38;3.85;;;15.40;99.90;;;;;;4903728;29;20055;-74
2022/06/29 00:59:24;;;;;;;4.68;4.15;;;15.40;99.90;;;;;;4921495;29;20052;-74
2022/06/29 01:01:50;;;;;;;3.88;3.55;;;15.40;99.90;;;;;;4921461;29;20058;-74
2022/06/29 01:04:15;;;;;;;3.92;3.63;;;15.40;99.90;;;;;;4922188;29;20052;-74
2022/06/29 01:06:41;;;;;;;4.75;3.58;;;15.30;99.90;;;;;;4920037;29;20060;-74
2022/06/29 01:09:07;;;;;;;4.78;3.58;;;15.30;99.90;;;;;;4912201;29;20378;-74
2022/06/29 01:11:33;;;;;;;5.15;3.50;;;15.20;99.90;;;;;;4926216;29;20550;-74
2022/06/29 01:14:00;;;;;;;3.67;3.30;;;15.20;99.90;;;;;;4930349;28;20047;-74
2022/06/29 01:16:26;;;;;;;5.47;4.63;;;15.30;99.90;;;;;;4921311;29;20134;-74
2022/06/29 01:18:52;;;;;;;4.90;4.50;;;15.30;99.90;;;;;;4923200;29;20906;-74
2022/06/29 01:21:20;;;;;;;6.03;4.47;;;15.30;99.90;;;;;;4922013;29;20055;-74
2022/06/29 01:23:46;;;;;;;4.55;4.13;;;15.30;99.90;;;;;;4933889;28;20357;-74
2022/06/29 01:26:11;;;;;;;5.60;4.55;;;15.10;99.90;;;;;;4929326;28;20059;-74
2022/06/29 01:28:46;;;;;;;4.65;4.25;;;15.30;99.90;;;;;;4924077;29;20054;-74
2022/06/29 01:31:16;;;;;;;6.32;4.72;;;15.30;99.90;;;;;;4924748;29;20055;-74
2022/06/29 01:33:42;;;;;;;5.40;4.07;;;15.30;99.90;;;;;;4915909;29;20106;-74
2022/06/29 01:36:08;;;;;;;5.65;4.70;;;15.30;99.90;;;;;;4922996;29;20556;-73
2022/06/29 01:38:36;;;;;;;5.38;4.25;;;14.90;99.90;;;;;;4914129;29;20043;-73
2022/06/29 01:41:10;;;;;;;5.75;5.25;;;15.30;99.90;;;;;;4916480;29;20059;-73
2022/06/29 01:43:39;;;;;;;5.47;4.63;;;15.30;99.90;;;;;;4915646;29;20056;-74
2022/06/29 01:46:06;;;;;;;5.82;4.85;;;15.30;99.90;;;;;;4921748;29;20036;-74
2022/06/29 01:48:32;;;;;;;5.13;4.70;;;15.30;99.90;;;;;;4925095;29;20044;-73
2022/06/29 01:50:58;;;;;;;7.65;6.20;;;15.30;99.90;;;;;;4919472;28;20079;-74
2022/06/29 01:53:25;;;;;;;6.35;5.75;;;15.30;99.90;;;;;;4922329;29;20044;-74
2022/06/29 01:55:50;;;;;;;6.18;5.65;;;15.40;99.90;;;;;;4917037;29;20052;-73
2022/06/29 01:58:17;;;;;;;8.15;5.93;;;15.40;99.90;;;;;;4922810;29;20834;-74
2022/06/29 02:00:43;;;;;;;5.38;4.68;;;15.40;99.90;;;;;;4909728;29;20059;-74
2022/06/29 02:03:09;;;;;;;4.90;4.32;;;15.50;99.90;;;;;;4912605;29;20122;-73
2022/06/29 02:05:35;;;;;;;5.05;4.60;;;15.40;99.90;;;;;;4917677;29;20849;-73
2022/06/29 02:08:01;;;;;;;6.65;5.85;;;15.50;99.90;;;;;;4914685;29;20099;-74
2022/06/29 02:10:27;;;;;;;6.10;5.35;;;15.40;99.90;;;;;;4917096;29;20101;-73
2022/06/29 02:12:53;;;;;;;8.50;5.00;;;15.40;99.90;;;;;;4917006;29;20047;-73
2022/06/29 02:15:18;;;;;;;7.68;5.47;;;15.50;99.90;;;;;;4918523;29;20063;-73
2022/06/29 02:17:44;;;;;;;7.10;5.22;;;15.50;99.90;;;;;;4916633;29;20081;-73
2022/06/29 02:20:12;;;;;;;8.38;5.50;;;15.60;99.90;;;;;;4930970;29;20050;-73
2022/06/29 02:22:39;;;;;;;6.20;5.60;;;15.60;99.90;;;;;;4924953;29;20150;-73
2022/06/29 02:25:05;;;;;;;5.22;4.72;;;15.60;99.90;;;;;;4924475;28;20066;-74
2022/06/29 02:27:30;;;;;;;10.13;6.82;;;15.60;99.90;;;;;;4907086;29;20195;-74
2022/06/29 02:29:56;;;;;;;6.63;5.70;;;15.70;99.90;;;;;;4921928;29;20391;-73
2022/06/29 02:35:14;;;;;;;8.52;6.38;;;15.60;99.90;;;;;;4922569;28;20048;-74
2022/06/29 02:37:39;;;;;;;6.90;6.07;;;15.60;99.90;;;;;;4915190;29;20080;-73
2022/06/29 02:40:05;;;;;;;6.57;5.95;;;15.60;99.90;;;;;;4919066;29;20480;-74
2022/06/29 02:42:31;;;;;;;7.53;6.75;;;15.60;99.90;;;;;;4921239;28;20056;-73
2022/06/29 02:44:56;;;;;;;9.95;6.10;;;15.60;99.90;;;;;;4916522;29;20050;-74
2022/06/29 02:47:22;;;;;;;7.03;6.07;;;15.60;99.90;;;;;;4926269;28;20055;-73
2022/06/29 02:49:48;;;;;;;8.88;6.03;;;15.60;99.90;;;;;;4910645;28;20044;-73
2022/06/29 02:52:13;;;;;;;7.05;6.07;;;15.60;99.90;;;;;;4919699;29;20119;-73
2022/06/29 02:54:39;;;;;;;8.40;5.65;;;15.60;99.90;;;;;;4919302;29;20046;-73
2022/06/29 02:57:05;;;;;;;7.47;6.43;;;15.70;99.90;;;;;;4913593;29;20039;-74
2022/06/29 02:59:30;;;;;;;6.75;6.03;;;15.70;99.90;;;;;;4915067;29;20059;-74
2022/06/29 03:01:57;;;;;;;6.32;5.68;;;15.60;99.90;;;;;;4922367;28;20055;-74
2022/06/29 03:04:22;;;;;;;5.15;4.65;;;15.60;99.90;;;;;;4919283;29;20078;-74
2022/06/29 03:06:48;;;;;;;5.95;5.38;;;15.70;99.90;;;;;;4910139;29;20079;-74
2022/06/29 03:09:14;;;;;;;8.48;6.43;;;15.70;99.90;;;;;;4919112;29;20134;-73
2022/06/29 03:11:39;;;;;;;6.32;5.50;;;15.60;99.90;;;;;;4921129;29;20060;-73
2022/06/29 03:14:05;;;;;;;6.25;5.60;;;15.60;99.90;;;;;;4920141;29;20490;-73
2022/06/29 03:16:31;;;;;;;9.18;6.57;;;15.60;99.90;;;;;;4922881;29;20167;-74
2022/06/29 03:18:56;;;;;;;6.78;5.97;;;15.60;99.90;;;;;;4931674;28;20052;-74
2022/06/29 03:21:22;;;;;;;8.25;6.00;;;15.60;99.90;;;;;;4917921;29;20054;-73
2022/06/29 03:23:49;;;;;;;8.07;6.00;;;15.60;99.90;;;;;;4925428;29;20055;-74
2022/06/29 03:26:14;;;;;;;6.93;6.22;;;15.50;99.90;;;;;;4925705;28;20055;-74
2022/06/29 03:28:40;;;;;;;6.63;5.90;;;15.50;99.90;;;;;;4919065;29;20090;-73
2022/06/29 03:31:06;;;;;;;6.70;6.10;;;15.40;99.90;;;;;;4918505;29;20071;-73
2022/06/29 03:33:32;;;;;;;7.25;6.10;;;15.40;99.90;;;;;;4920482;29;20078;-73
2022/06/29 03:35:58;;;;;;;7.90;6.55;;;15.40;99.90;;;;;;4923213;29;20047;-73
2022/06/29 03:38:24;;;;;;;8.45;5.68;;;15.40;99.90;;;;;;4928102;29;20057;-73
2022/06/29 03:40:49;;;;;;;5.45;4.95;;;15.40;99.90;;;;;;4927257;29;20051;-73
2022/06/29 03:43:15;;;;;;;5.90;5.30;;;15.40;99.90;;;;;;4917606;29;20134;-73
2022/06/29 03:45:41;;;;;;;8.05;6.15;;;15.40;99.90;;;;;;4909893;29;20484;-73
2022/06/29 03:48:07;;;;;;;6.38;5.78;;;15.40;99.90;;;;;;4902712;29;20123;-72
2022/06/29 03:50:33;;;;;;;6.95;6.25;;;15.40;99.90;;;;;;4910010;29;20563;-73
2022/06/29 03:52:59;;;;;;;11.80;5.65;;;15.30;99.90;;;;;;4915456;29;20176;-73
2022/06/29 03:55:25;;;;;;;6.60;5.97;;;15.30;99.90;;;;;;4916029;29;20055;-73
2022/06/29 03:57:51;;;;;;;6.30;5.80;;;15.40;99.90;;;;;;4912055;29;20098;-73
2022/06/29 04:00:17;;;;;;;6.28;5.75;;;15.40;99.90;;;;;;4916043;29;20052;-74
2022/06/29 04:02:42;;;;;;;7.82;5.93;;;15.30;99.90;;;;;;4914333;29;20492;-74
2022/06/29 04:05:08;;;;;;;7.85;6.53;;;15.30;99.90;;;;;;4925228;28;20073;-73
2022/06/29 04:07:35;;;;;;;6.68;5.65;;;15.30;99.90;;;;;;4918607;29;20407;-73
2022/06/29 04:10:01;;;;;;;6.68;5.95;;;15.30;99.90;;;;;;4925688;29;20047;-73
2022/06/29 04:12:31;;;;;;;8.98;6.35;;;15.40;99.90;;;;;;4916200;28;20051;-73
2022/06/29 04:14:58;;;;;;;9.30;6.03;;;15.40;99.90;;;;;;4922655;28;20555;-73
2022/06/29 04:17:23;;;;;;;6.78;6.05;;;15.30;99.90;;;;;;4916316;29;20048;-73
2022/06/29 04:19:52;;;;;;;6.70;6.00;;;15.30;99.90;;;;;;4914483;29;20114;-73
2022/06/29 04:22:19;;;;;;;7.43;5.75;;;15.40;99.90;;;;;;4919189;29;20463;-74
2022/06/29 04:24:46;;;;;;;9.25;6.18;;;15.40;99.90;;;;;;4911996;29;20176;-73
2022/06/29 04:27:13;;;;;;;7.97;6.60;;;15.40;99.90;;;;;;4914336;29;20063;-74
2022/06/29 04:29:39;;;;;;;6.80;6.20;;;15.40;99.90;;;;;;4914650;29;20103;-73
2022/06/29 04:32:05;;;;;;;10.05;7.25;;;15.40;99.90;;;;;;4914743;29;20838;-74
2022/06/29 04:34:30;;;;;;;6.85;6.22;;;15.50;99.90;;;;;;4930938;29;20053;-73
2022/06/29 04:36:56;;;;;;;8.88;6.63;;;15.50;99.90;;;;;;4915169;28;20048;-73
2022/06/29 04:39:22;;;;;;;6.82;6.13;;;15.50;99.90;;;;;;4918700;29;20866;-73
2022/06/29 04:41:48;;;;;;;6.68;6.07;;;15.60;99.90;;;;;;4926491;28;20091;-73
2022/06/29 04:44:14;;;;;;;6.97;6.25;;;15.70;99.90;;;;;;4917827;29;20063;-73
2022/06/29 04:46:40;;;;;;;7.35;6.35;;;15.80;99.90;;;;;;4917592;29;20142;-73
2022/06/29 04:49:06;;;;;;;8.45;6.72;;;15.90;99.90;;;;;;4919048;29;20589;-74
2022/06/29 04:51:33;;;;;;;6.72;5.47;;;15.90;99.90;;;;;;4916894;28;20056;-73
2022/06/29 04:54:00;;;;;;;9.73;6.85;;;15.90;99.90;;;;;;4916958;29;20680;-73
2022/06/29 04:56:28;;;;;;;7.25;6.63;;;16.00;99.90;;;;;;4913215;29;20055;-73
2022/06/29 04:58:54;;;;;;;10.77;6.32;;;16.00;99.90;;;;;;4907543;29;20795;-73
2022/06/29 05:01:21;;;;;;;8.20;7.05;;;16.10;99.90;;;;;;4917393;29;20040;-73
2022/06/29 05:03:47;;;;;;;8.20;6.50;;;16.10;99.90;;;;;;4913104;29;20052;-73
2022/06/29 05:06:13;;;;;;;8.35;7.40;;;16.20;99.90;;;;;;4899159;29;20190;-73
2022/06/29 05:08:39;;;;;;;11.25;7.65;;;16.20;99.90;;;;;;4920751;29;20554;-73
2022/06/29 05:11:05;;;;;;;10.18;6.55;;;16.20;99.90;;;;;;4933990;28;20044;-72
2022/06/29 05:13:31;;;;;;;9.27;7.20;;;16.30;99.90;;;;;;4908418;29;20074;-72
2022/06/29 05:15:56;;;;;;;8.57;7.05;;;16.40;99.90;;;;;;4918018;29;20780;-73
2022/06/29 05:18:22;;;;;;;9.55;7.50;;;16.40;99.90;;;;;;4931886;28;20058;-73
2022/06/29 05:20:48;;;;;;;7.97;6.88;;;16.50;99.90;;;;;;4911207;29;20044;-72
2022/06/29 05:23:14;;;;;;;7.00;6.40;;;16.60;99.90;;;;;;4921233;29;20088;-73
2022/06/29 05:25:40;;;;;;;7.45;6.72;;;16.60;99.90;;;;;;4914210;29;20420;-73
2022/06/29 05:28:06;;;;;;;9.63;6.95;;;16.70;99.90;;;;;;4912101;29;20048;-73
2022/06/29 05:30:32;;;;;;;8.63;7.82;;;16.80;99.90;;;;;;4909595;29;20366;-73
2022/06/29 05:32:58;;;;;;;8.65;7.60;;;16.90;99.90;;;;;;4912452;29;20489;-73
2022/06/29 05:35:24;;;;;;;7.57;6.85;;;17.00;99.90;;;;;;4925186;28;20052;-73
2022/06/29 05:37:50;;;;;;;9.48;7.72;;;17.00;99.90;;;;;;4914390;29;20123;-73
2022/06/29 05:40:16;;;;;;;7.75;6.35;;;17.10;99.90;;;;;;4916330;29;20047;-73
2022/06/29 05:42:41;;;;;;;7.75;6.95;;;17.10;99.90;;;;;;4918138;29;20051;-73
2022/06/29 05:45:07;;;;;;;8.77;6.72;;;17.20;99.90;;;;;;4904101;29;20054;-73
2022/06/29 05:47:33;;;;;;;8.32;7.25;;;17.20;99.90;;;;;;4913033;29;20059;-73
2022/06/29 05:50:00;;;;;;;7.80;7.10;;;17.30;99.90;;;;;;4919981;29;20048;-73
2022/06/29 05:52:27;;;;;;;7.10;6.40;;;17.40;99.90;;;;;;4915666;29;20154;-73
2022/06/29 05:54:52;;;;;;;8.70;7.10;;;17.60;99.90;;;;;;4913795;29;20424;-74
2022/06/29 05:57:19;;;;;;;7.78;7.07;;;17.70;99.90;;;;;;4929331;29;20051;-73
2022/06/29 05:59:46;;;;;;;7.70;6.80;;;17.80;99.90;;;;;;4926995;29;20822;-72
2022/06/29 06:02:12;;;;;;;7.32;6.30;;;17.90;99.90;;;;;;4916772;29;20063;-73
2022/06/29 06:04:38;;;;;;;8.88;7.28;;;18.00;99.90;;;;;;4911105;29;20913;-73
2022/06/29 06:07:04;;;;;;;10.18;6.72;;;18.10;99.90;;;;;;4914107;29;20831;-74
2022/06/29 06:09:29;;;;;;;8.80;7.18;;;18.20;99.90;;;;;;4916825;29;20087;-72
2022/06/29 06:11:55;;;;;;;10.15;6.38;;;18.40;99.90;;;;;;4904365;29;20131;-72
2022/06/29 06:14:21;;;;;;;7.35;6.65;;;18.50;99.90;;;;;;4917509;29;20130;-73
2022/06/29 06:16:47;;;;;;;7.93;5.78;;;18.70;99.90;;;;;;4912771;29;20483;-72
2022/06/29 06:19:13;;;;;;;5.82;5.10;;;18.90;99.90;;;;;;4914824;29;20040;-72
2022/06/29 06:21:38;;;;;;;7.85;5.40;;;19.30;99.90;;;;;;4910093;29;20308;-73
2022/06/29 06:24:05;;;;;;;5.50;4.82;;;20.40;99.90;;;;;;4908759;29;20099;-73
2022/06/29 06:26:31;;;;;;;6.40;5.03;;;21.90;99.90;;;;;;4902450;29;20098;-73
2022/06/29 06:28:58;;;;;;;5.68;5.10;;;23.20;99.90;;;;;;4906445;29;20411;-73
2022/06/29 06:31:26;;;;;;;4.80;4.40;;;24.30;99.90;;;;;;4917039;29;20051;-73
2022/06/29 06:33:52;;;;;;;7.65;5.20;;;25.10;99.90;;;;;;4907909;28;20047;-73
2022/06/29 06:36:18;;;;;;;5.13;4.65;;;25.80;99.90;;;;;;4906842;29;20204;-72
2022/06/29 06:38:44;;;;;;;5.20;4.70;;;26.30;99.90;;;;;;4909180;29;20884;-73
2022/06/29 06:41:21;;;;;;;5.47;4.63;;;26.60;99.00;;;;;;4906058;28;20051;-73
2022/06/29 06:43:58;;;;;;;4.72;4.32;;;26.90;98.20;;;;;;4577905;28;10000236;-73
2022/06/29 06:46:24;;;;;;;7.10;4.18;;;27.20;97.10;;;;;;4916419;29;20044;-73
2022/06/29 06:48:51;;;;;;;6.20;4.43;;;27.30;97.00;;;;;;4906444;29;20162;-73
2022/06/29 06:51:18;;;;;;;7.55;4.10;;;27.60;95.80;;;;;;4908786;29;20048;-73
2022/06/29 06:53:45;;;;;;;5.57;3.67;;;27.80;95.40;;;;;;4901927;29;20048;-73
2022/06/29 06:56:10;;;;;;;4.57;4.03;;;28.40;94.70;;;;;;4901069;29;20050;-74
2022/06/29 06:58:36;;;;;;;5.82;4.13;;;28.80;94.30;;;;;;4902154;29;20051;-73
2022/06/29 07:01:06;;;;;;;4.50;3.50;;;29.10;93.30;;;;;;4904634;29;20048;-74
2022/06/29 07:03:32;;;;;;;3.80;3.33;;;29.20;91.50;;;;;;4901892;29;20098;-74
2022/06/29 07:06:04;;;;;;;4.75;3.30;;;29.40;92.10;;;;;;4904371;29;20074;-74
2022/06/29 07:08:31;;;;;;;4.45;3.42;;;29.70;91.60;;;;;;4905728;29;20167;-74
2022/06/29 07:10:58;;;;;;;4.18;3.08;;;29.80;90.80;;;;;;4905043;29;20055;-73
2022/06/29 07:13:24;;;;;;;5.47;3.65;;;30.00;90.60;;;;;;4903022;29;21129;-74
2022/06/29 07:15:49;;;;;;;5.75;3.22;;;30.10;90.10;;;;;;4911710;29;20043;-74
2022/06/29 07:18:15;;;;;;;3.30;3.00;;;30.30;89.20;;;;;;4903669;29;21305;-75
2022/06/29 07:20:41;;;;;;;3.55;2.63;;;30.40;87.90;;;;;;4902631;29;20058;-73
2022/06/29 07:23:07;;;;;;;5.50;2.83;;;30.40;86.30;;;;;;4914810;28;20136;-73
2022/06/29 07:25:32;;;;;;;5.80;2.70;;;30.40;85.50;;;;;;4903069;29;20075;-73
2022/06/29 07:27:58;;;;;;;4.45;2.50;;;30.60;84.70;;;;;;4907863;29;20227;-73
2022/06/29 07:30:24;;;;;;;4.45;2.80;;;30.60;84.10;;;;;;4904794;29;20359;-72
2022/06/29 07:32:50;;;;;;;3.53;2.47;;;30.60;84.10;;;;;;4902048;29;20051;-73
2022/06/29 07:35:15;;;;;;;5.03;2.72;;;30.70;83.80;;;;;;4922202;28;20051;-73
2022/06/29 07:37:44;;;;;;;4.13;2.40;;;30.60;84.10;;;;;;4902286;29;20043;-73
2022/06/29 07:40:11;;;;;;;3.30;2.28;;;30.90;83.80;;;;;;4904559;29;20155;-73
2022/06/29 07:42:38;;;;;;;4.43;2.30;;;30.90;83.90;;;;;;4909645;29;20324;-73
2022/06/29 07:45:05;;;;;;;4.45;2.58;;;31.20;83.90;;;;;;4902900;29;20047;-73
2022/06/29 07:47:31;;;;;;;3.30;2.28;;;31.50;82.10;;;;;;4899588;29;20051;-73
2022/06/29 07:49:58;;;;;;;3.67;2.42;;;31.50;81.20;;;;;;4908451;29;20428;-73
2022/06/29 07:52:24;;;;;;;3.80;2.08;;;31.50;79.50;;;;;;4906413;29;20782;-73
2022/06/29 07:54:50;;;;;;;2.80;2.08;;;31.60;79.20;;;;;;4901106;29;20055;-73
2022/06/29 07:57:16;;;;;;;2.50;1.88;;;31.90;79.10;;;;;;4903462;29;20091;-73
2022/06/29 07:59:42;;;;;;;3.08;1.92;;;31.90;77.80;;;;;;4902518;29;20047;-73
2022/06/29 08:02:07;;;;;;;3.20;2.10;;;31.90;77.00;;;;;;4906185;29;20192;-73
2022/06/29 08:04:33;;;;;;;2.90;2.08;;;31.60;75.80;;;;;;4905409;29;20142;-73
2022/06/29 08:06:59;;;;;;;2.88;1.88;;;31.80;75.70;;;;;;4905760;29;20048;-73
2022/06/29 08:09:24;;;;;;;3.55;2.10;;;31.70;75.50;;;;;;4908877;29;20928;-73
2022/06/29 08:11:51;;;;;;;3.47;2.13;;;31.90;75.60;;;;;;4913119;29;20094;-73
2022/06/29 08:14:17;;;;;;;2.85;1.92;;;32.30;75.40;;;;;;4904568;29;20058;-73
2022/06/29 08:16:43;;;;;;;4.93;2.17;;;32.00;75.10;;;;;;4902621;29;20110;-73
2022/06/29 08:19:09;;;;;;;2.20;2.05;;;31.50;74.40;;;;;;4894495;29;20071;-73
2022/06/29 08:21:34;;;;;;;2.63;2.22;;;30.90;73.90;;;;;;4905698;29;20783;-73
2022/06/29 08:24:00;;;;;;;3.13;1.85;;;31.00;74.50;;;;;;4903977;29;20399;-73
2022/06/29 08:26:26;;;;;;;3.22;1.90;;;31.50;74.50;;;;;;4899525;29;20048;-74
2022/06/29 08:28:52;;;;;;;3.05;2.03;;;31.70;72.80;;;;;;4912859;29;20822;-72
2022/06/29 08:31:18;;;;;;;2.97;1.90;;;31.40;72.20;;;;;;4901192;29;20062;-73
2022/06/29 08:33:44;;;;;;;2.58;1.90;;;30.90;72.20;;;;;;4897096;29;20087;-73
2022/06/29 08:36:10;;;;;;;4.35;1.95;;;30.40;72.80;;;;;;4894822;29;20060;-73
2022/06/29 08:38:35;;;;;;;2.08;1.92;;;29.90;72.70;;;;;;4898545;29;20944;-72
2022/06/29 08:41:01;;;;;;;4.10;2.42;;;29.50;72.30;;;;;;4903096;29;20140;-71
2022/06/29 08:43:27;;;;;;;2.80;2.28;;;29.20;72.90;;;;;;4916326;29;20928;-71
2022/06/29 08:45:53;;;;;;;2.15;1.90;;;28.90;72.90;;;;;;4915419;29;20044;-73
2022/06/29 08:48:19;;;;;;;2.60;1.88;;;28.60;72.90;;;;;;4916521;29;20059;-73
2022/06/29 08:50:53;;;;;;;2.92;1.95;;;28.50;73.80;;;;;;4917068;29;20047;-73
2022/06/29 08:53:20;;;;;;;2.55;1.98;;;28.60;74.50;;;;;;4915186;29;20473;-72
2022/06/29 08:55:48;;;;;;;2.50;1.70;;;29.00;74.50;;;;;;4916547;29;20043;-72
2022/06/29 08:58:24;;;;;;;2.45;1.92;;;29.70;74.70;;;;;;4925543;29;20234;-72
2022/06/29 09:00:50;;;;;;;2.78;1.80;;;30.20;74.20;;;;;;4916046;29;20051;-73
2022/06/29 09:03:20;;;;;;;2.00;1.80;;;30.70;74.30;;;;;;4908053;29;20056;-73
2022/06/29 09:05:48;;;;;;;2.10;1.88;;;31.00;74.20;;;;;;4923635;28;20091;-73
2022/06/29 09:08:14;;;;;;;2.92;1.98;;;31.40;73.50;;;;;;4900990;29;20060;-72
2022/06/29 09:10:40;;;;;;;4.57;1.95;;;31.60;72.30;;;;;;4916290;29;20128;-72
2022/06/29 09:13:06;;;;;;;2.00;1.60;;;31.80;72.50;;;;;;4902247;29;20910;-74
2022/06/29 09:15:38;;;;;;;1.63;1.52;;;32.00;71.20;;;;;;4913318;29;20047;-72
2022/06/29 09:18:23;;;;;;;3.22;2.13;;;32.20;68.50;;;;;;4913011;29;20055;-73
2022/06/29 09:20:56;;;;;;;3.78;1.95;;;31.90;68.00;;;;;;4912944;29;20056;-73
2022/06/29 09:23:23;;;;;;;2.50;1.50;;;31.60;67.40;;;;;;4922655;29;20058;-73
2022/06/29 09:25:49;;;;;;;3.20;1.77;;;31.10;69.30;;;;;;4920150;29;20142;-73
2022/06/29 09:28:20;;;;;;;2.33;2.00;;;31.00;69.10;;;;;;4920231;29;20174;-72
2022/06/29 09:30:46;;;;;;;2.00;1.60;;;30.80;68.90;;;;;;4923724;28;20083;-73
2022/06/29 09:33:12;;;;;;;2.25;2.05;;;30.70;70.00;;;;;;4918705;29;20135;-73
2022/06/29 09:35:39;;;;;;;2.97;1.80;;;30.70;69.90;;;;;;4915810;29;20130;-73
2022/06/29 09:38:22;;;;;;;2.33;1.90;;;30.80;72.00;;;;;;4919455;29;20036;-73
2022/06/29 09:41:10;;;;;;;3.28;2.22;;;31.20;68.80;;;;;;4921271;29;20055;-73
2022/06/29 09:43:40;;;;;;;2.45;1.90;;;31.50;68.40;;;;;;4912643;29;20059;-73
2022/06/29 09:46:08;;;;;;;2.95;1.85;;;31.60;68.60;;;;;;4929046;29;20074;-72
2022/06/29 09:48:35;;;;;;;3.05;2.00;;;31.40;68.40;;;;;;4920507;29;20062;-72
2022/06/29 09:51:30;;;;;;;2.47;1.60;;;31.20;67.80;;;;;;4920913;29;20055;-73
2022/06/29 09:53:55;;;;;;;3.28;2.00;;;31.20;68.80;;;;;;4921437;29;20056;-73
2022/06/29 09:56:24;;;;;;;3.08;2.03;;;31.40;68.20;;;;;;4915812;29;20742;-72
2022/06/29 09:58:52;;;;;;;2.08;1.83;;;31.70;69.00;;;;;;4906583;29;20056;-72
2022/06/29 10:04:02;;;;;;;2.10;1.73;;;31.90;68.90;;;;;;4917518;29;20464;-72
2022/06/29 10:06:28;;;;;;;1.85;1.73;;;31.90;68.50;;;;;;4907060;29;20083;-70
2022/06/29 10:08:56;;;;;;;2.17;2.03;;;32.00;67.90;;;;;;4911719;29;20484;-73
2022/06/29 10:14:44;;;;;;;2.97;1.92;;;32.10;66.10;;;;;;4920256;29;20126;-73
2022/06/29 10:17:12;;;;;;;1.90;1.80;;;31.90;66.80;;;;;;4909406;29;20568;-72
2022/06/29 10:20:06;;;;;;;2.00;1.85;;;31.70;66.30;;;;;;4919713;29;20291;-71
2022/06/29 10:22:32;;;;;;;2.42;2.22;;;31.50;66.10;;;;;;4917658;29;20500;-71
2022/06/29 10:25:05;;;;;;;2.42;2.15;;;31.40;67.90;;;;;;4916394;29;20051;-72
2022/06/29 10:27:31;;;;;;;2.63;1.95;;;31.50;66.70;;;;;;4913591;29;20067;-72
2022/06/29 10:30:19;;;;;;;2.13;1.90;;;31.40;66.60;;;;;;4918870;29;20083;-71
2022/06/29 10:32:46;;;;;;;3.08;1.90;;;31.10;65.90;;;;;;4908102;29;20059;-73
2022/06/29 10:35:12;;;;;;;2.85;1.80;;;31.20;66.00;;;;;;4919581;29;20044;-72
2022/06/29 10:37:52;;;;;;;2.33;1.77;;;31.10;65.60;;;;;;4916149;29;20190;-72
2022/06/29 10:40:27;;;;;;;2.72;1.90;;;30.90;65.30;;;;;;4908560;29;20536;-72
2022/06/29 10:43:07;;;;;;;2.45;2.25;;;30.70;64.80;;;;;;4923094;29;20117;-71
2022/06/29 10:45:39;;;;;;;2.13;1.92;;;30.50;65.80;;;;;;4913350;29;20056;-73
2022/06/29 10:48:06;;;;;;;2.37;2.17;;;30.20;66.60;;;;;;4914737;29;20457;-71
2022/06/29 10:50:33;;;;;;;2.35;1.80;;;30.00;66.80;;;;;;4918353;29;20070;-71
2022/06/29 10:53:08;;;;;;;3.53;2.20;;;29.80;66.80;;;;;;4915792;29;20044;-72
2022/06/29 10:55:36;;;;;;;2.35;1.95;;;29.70;69.10;;;;;;4917533;29;20802;-72
2022/06/29 10:58:03;;;;;;;3.22;1.98;;;29.70;67.50;;;;;;4915182;29;20099;-71
2022/06/29 11:00:33;;;;;;;2.00;1.80;;;29.80;67.30;;;;;;4909467;29;20151;-71
2022/06/29 11:03:07;;;;;;;2.80;1.88;;;30.00;67.30;;;;;;4913098;29;20180;-71
2022/06/29 11:05:36;;;;;;;3.13;1.85;;;30.20;67.10;;;;;;4931605;28;20114;-72
2022/06/29 11:13:32;;;;;;;2.00;1.75;;;30.80;66.40;;;;;;4915904;29;20043;-72
2022/06/29 11:15:59;;;;;;;2.97;1.83;;;30.90;64.90;;;;;;4917634;29;20059;-72
2022/06/29 11:18:30;;;;;;;2.00;1.83;;;31.10;65.30;;;;;;4913490;29;20155;-72
2022/06/29 11:21:04;;;;;;;3.97;2.20;;;31.20;64.40;;;;;;4917748;29;20043;-72
2022/06/29 11:23:32;;;;;;;1.52;1.40;;;31.20;64.10;;;;;;4912818;29;20079;-71
2022/06/29 11:26:00;;;;;;;1.80;1.70;;;31.10;63.90;;;;;;4915532;29;20091;-72
2022/06/29 11:28:29;;;;;;;2.75;1.98;;;30.80;63.00;;;;;;4915415;29;20055;-72
2022/06/29 11:31:00;;;;;;;2.22;1.90;;;30.70;62.80;;;;;;4918430;29;20044;-71
2022/06/29 11:33:28;;;;;;;4.07;2.72;;;30.60;63.20;;;;;;4916654;29;20040;-72
2022/06/29 11:35:55;;;;;;;2.33;2.13;;;30.30;63.90;;;;;;4916063;29;20159;-72
2022/06/29 11:38:28;;;;;;;3.83;2.25;;;30.20;63.30;;;;;;4913979;29;20756;-70
2022/06/29 11:40:54;;;;;;;4.63;2.10;;;30.20;63.60;;;;;;4909898;29;20062;-72
2022/06/29 11:43:21;;;;;;;3.03;2.28;;;30.40;64.10;;;;;;4912716;29;20059;-71
2022/06/29 11:45:47;;;;;;;2.08;1.98;;;30.40;65.00;;;;;;4910090;29;20118;-72
2022/06/29 11:48:26;;;;;;;2.35;2.13;;;30.50;64.30;;;;;;4914704;29;20044;-71
2022/06/29 11:50:55;;;;;;;3.70;2.53;;;30.30;64.80;;;;;;4914068;29;20083;-71
2022/06/29 11:53:44;;;;;;;2.78;2.15;;;30.30;64.40;;;;;;4915627;29;20642;-70
2022/06/29 11:56:15;;;;;;;3.97;2.05;;;30.40;64.90;;;;;;4910084;29;20228;-71
2022/06/29 11:58:43;;;;;;;5.70;2.47;;;30.70;64.40;;;;;;4917153;29;20055;-70
2022/06/29 12:01:13;;;;;;;2.78;2.28;;;30.70;64.20;;;;;;4917465;29;20127;-71
2022/06/29 12:03:46;;;;;;;3.67;2.30;;;30.90;65.60;;;;;;4902139;29;20694;-72
2022/06/29 12:06:14;;;;;;;2.78;2.58;;;30.80;64.30;;;;;;4907483;29;20054;-71
2022/06/29 12:08:40;;;;;;;3.20;2.55;;;30.90;63.70;;;;;;4904402;29;20055;-71
2022/06/29 12:11:06;;;;;;;3.35;3.05;;;30.90;63.20;;;;;;4915500;29;20047;-71
2022/06/29 12:13:32;;;;;;;3.05;2.78;;;31.00;63.40;;;;;;4913019;29;20137;-72
2022/06/29 12:15:58;;;;;;;5.07;2.90;;;30.70;62.90;;;;;;4909160;29;20100;-72
2022/06/29 12:18:24;;;;;;;3.45;3.08;;;30.50;63.10;;;;;;4905664;29;20954;-71
2022/06/29 12:20:50;;;;;;;4.57;2.55;;;30.60;64.20;;;;;;4901305;28;20622;-71
2022/06/29 12:23:16;;;;;;;4.72;3.05;;;30.90;64.30;;;;;;4904536;29;20134;-70
2022/06/29 12:25:41;;;;;;;3.08;2.78;;;30.90;63.60;;;;;;4911285;29;20510;-73
2022/06/29 12:28:07;;;;;;;3.13;2.45;;;30.70;63.20;;;;;;4905569;29;20820;-71
2022/06/29 12:30:34;;;;;;;3.15;2.95;;;30.70;63.90;;;;;;4904307;29;20087;-72
2022/06/29 12:33:00;;;;;;;2.97;2.67;;;30.70;64.00;;;;;;4909327;29;20059;-71
2022/06/29 12:35:26;;;;;;;5.68;3.22;;;30.90;64.10;;;;;;4907972;29;20052;-73
2022/06/29 12:37:57;;;;;;;4.63;3.75;;;30.70;64.70;;;;;;4909510;28;20433;-72
2022/06/29 12:40:24;;;;;;;4.22;3.55;;;30.60;64.60;;;;;;4910642;29;20434;-70
2022/06/29 12:42:50;;;;;;;3.67;3.38;;;30.60;65.40;;;;;;4914932;29;20062;-71
2022/06/29 12:45:16;;;;;;;5.85;3.75;;;30.60;66.30;;;;;;4909073;29;20140;-71
2022/06/29 12:47:41;;;;;;;3.70;3.40;;;30.50;66.70;;;;;;4907024;29;20044;-73
2022/06/29 12:50:07;;;;;;;4.82;4.07;;;30.60;66.80;;;;;;4909758;29;20044;-71
2022/06/29 12:52:33;;;;;;;4.45;3.88;;;30.60;66.60;;;;;;4914952;29;20066;-71
2022/06/29 12:54:59;;;;;;;6.50;4.20;;;30.60;66.50;;;;;;4926297;28;20048;-72
2022/06/29 12:57:25;;;;;;;6.57;4.03;;;30.60;66.60;;;;;;4914082;29;20262;-72
2022/06/29 12:59:51;;;;;;;6.03;4.18;;;30.50;67.00;;;;;;4916920;29;20512;-71